Time;durP1;ratioP1;P1;durP2;ratioP2;P2;SDS_P1;SDS_P2;PMS_P1;PMS_P2;Temp;Humidity;BMP_temperature;BMP_pressure;BME280_temperature;BME280_humidity;BME280_pressure;Samples;Min_cycle;Max_cycle;Signal;HPM_P1;HPM_P2
2023/05/13 00:00:13;;;;;;;5.05;2.60;;;16.10;59.50;;;;;;4989073;28;20026;-64
2023/05/13 00:02:39;;;;;;;7.55;2.60;;;16.10;60.40;;;;;;4989188;28;20489;-65
2023/05/13 00:05:05;;;;;;;5.28;2.35;;;16.00;59.30;;;;;;4990330;28;20038;-65
2023/05/13 00:07:31;;;;;;;5.18;2.67;;;16.10;60.70;;;;;;4992756;28;20037;-65
2023/05/13 00:09:57;;;;;;;8.73;2.72;;;16.00;61.50;;;;;;4991537;28;20022;-64
2023/05/13 00:12:23;;;;;;;3.88;2.45;;;16.00;60.50;;;;;;4989622;28;20026;-64
2023/05/13 00:14:48;;;;;;;4.68;2.47;;;15.90;61.20;;;;;;4990878;28;20029;-65
2023/05/13 00:17:14;;;;;;;3.60;2.33;;;15.90;60.40;;;;;;4990893;28;20038;-64
2023/05/13 00:19:40;;;;;;;6.63;2.70;;;15.80;61.30;;;;;;4997608;28;20110;-65
2023/05/13 00:22:06;;;;;;;4.70;2.78;;;15.80;62.20;;;;;;4993086;28;20479;-64
2023/05/13 00:24:32;;;;;;;4.65;2.83;;;15.80;63.60;;;;;;4987864;28;20038;-64
2023/05/13 00:26:58;;;;;;;5.80;2.80;;;15.80;62.50;;;;;;4995579;28;20042;-64
2023/05/13 00:29:24;;;;;;;4.32;2.50;;;15.70;62.30;;;;;;4968589;28;20410;-65
2023/05/13 00:31:50;;;;;;;6.72;2.97;;;15.70;64.00;;;;;;4973289;28;20485;-64
2023/05/13 00:34:17;;;;;;;2.90;2.55;;;15.60;63.70;;;;;;4988765;28;20052;-65
2023/05/13 00:36:43;;;;;;;5.88;2.67;;;15.60;64.10;;;;;;4977050;28;20116;-65
2023/05/13 00:39:10;;;;;;;4.13;2.67;;;15.50;61.70;;;;;;4986205;28;20050;-64
2023/05/13 00:41:36;;;;;;;4.00;2.58;;;15.50;62.60;;;;;;4992670;28;20031;-65
2023/05/13 00:44:02;;;;;;;6.50;2.88;;;15.40;61.80;;;;;;4987336;28;20056;-63
2023/05/13 00:46:32;;;;;;;5.15;2.67;;;15.50;63.50;;;;;;4975944;28;20038;-63
2023/05/13 00:48:59;;;;;;;3.97;2.72;;;15.50;63.40;;;;;;4992995;28;20113;-63
2023/05/13 00:51:26;;;;;;;6.25;2.65;;;15.40;62.80;;;;;;4996667;28;20026;-65
2023/05/13 00:53:52;;;;;;;3.65;2.72;;;15.40;63.60;;;;;;4995570;28;20033;-63
2023/05/13 00:56:21;;;;;;;6.25;2.63;;;15.40;63.50;;;;;;4970367;28;20041;-65
2023/05/13 00:58:47;;;;;;;9.73;2.75;;;15.30;63.60;;;;;;4972339;28;20030;-63
2023/05/13 01:01:19;;;;;;;5.50;2.80;;;15.30;63.30;;;;;;4987996;28;20025;-63
2023/05/13 01:04:11;;;;;;;3.90;2.90;;;15.20;63.30;;;;;;4986350;28;20061;-63
2023/05/13 01:06:52;;;;;;;5.72;3.15;;;15.30;64.30;;;;;;4982519;28;20025;-63
2023/05/13 01:09:47;;;;;;;3.50;2.80;;;15.20;64.20;;;;;;4975849;28;20078;-63
2023/05/13 01:12:20;;;;;;;3.90;2.67;;;15.20;63.80;;;;;;4974899;28;20068;-65
2023/05/13 01:14:55;;;;;;;4.85;2.88;;;15.20;63.40;;;;;;4988001;28;20041;-65
2023/05/13 01:17:49;;;;;;;5.97;3.08;;;15.20;63.80;;;;;;4987240;28;20034;-65
2023/05/13 01:20:20;;;;;;;3.85;2.58;;;15.20;65.30;;;;;;4989632;28;20046;-65
2023/05/13 01:22:46;;;;;;;4.07;2.85;;;15.20;64.10;;;;;;4973563;28;20041;-65
2023/05/13 01:25:12;;;;;;;3.28;2.60;;;15.20;63.40;;;;;;4969289;28;20282;-65
2023/05/13 01:27:39;;;;;;;5.22;2.78;;;15.20;64.70;;;;;;4976038;28;20027;-65
2023/05/13 01:30:05;;;;;;;6.10;2.75;;;15.10;64.70;;;;;;4980915;28;20030;-66
2023/05/13 01:32:33;;;;;;;5.45;2.75;;;15.10;65.60;;;;;;4975479;28;20362;-65
2023/05/13 01:35:00;;;;;;;6.60;2.70;;;15.10;64.30;;;;;;4975321;28;20125;-66
2023/05/13 01:37:28;;;;;;;6.20;2.92;;;15.10;65.40;;;;;;4976565;28;20184;-65
2023/05/13 01:39:54;;;;;;;4.75;2.65;;;15.00;64.50;;;;;;4999431;28;20065;-65
2023/05/13 01:42:19;;;;;;;8.18;2.50;;;15.00;64.60;;;;;;4969356;28;20070;-65
2023/05/13 01:44:45;;;;;;;5.22;2.70;;;15.00;65.00;;;;;;4991753;28;20042;-65
2023/05/13 01:47:11;;;;;;;5.35;3.42;;;15.00;64.80;;;;;;4981294;28;20080;-65
2023/05/13 01:49:37;;;;;;;5.90;2.92;;;15.00;64.50;;;;;;4981010;28;20049;-64
2023/05/13 01:52:03;;;;;;;5.32;2.80;;;15.00;65.20;;;;;;4977848;28;20493;-65
2023/05/13 01:54:29;;;;;;;6.00;3.08;;;15.00;65.00;;;;;;4976489;28;20026;-65
2023/05/13 01:57:02;;;;;;;3.63;2.67;;;14.90;63.90;;;;;;4968364;28;20504;-65
2023/05/13 01:59:28;;;;;;;6.68;3.03;;;14.90;64.10;;;;;;4968042;28;20141;-65
2023/05/13 02:01:53;;;;;;;5.40;3.00;;;14.90;64.10;;;;;;4972126;28;20769;-65
2023/05/13 02:04:20;;;;;;;3.13;2.53;;;14.90;63.80;;;;;;4993514;28;20030;-65
2023/05/13 02:06:46;;;;;;;5.68;2.90;;;14.90;65.20;;;;;;4968102;28;20073;-65
2023/05/13 02:09:13;;;;;;;4.07;2.95;;;14.90;64.70;;;;;;4968731;28;20395;-65
2023/05/13 02:11:40;;;;;;;4.15;3.25;;;15.00;66.10;;;;;;4969036;28;20026;-65
2023/05/13 02:14:05;;;;;;;3.88;2.90;;;15.00;66.70;;;;;;4988411;28;20926;-65
2023/05/13 02:16:33;;;;;;;4.43;2.53;;;14.90;65.80;;;;;;4993063;28;20105;-65
2023/05/13 02:18:59;;;;;;;4.75;2.70;;;14.90;67.20;;;;;;4971414;28;20121;-65
2023/05/13 02:21:27;;;;;;;3.55;2.60;;;14.90;66.40;;;;;;4980227;28;20038;-65
2023/05/13 02:23:53;;;;;;;7.45;3.30;;;14.80;66.60;;;;;;4970318;28;20033;-65
2023/05/13 02:26:21;;;;;;;3.75;2.83;;;14.70;66.80;;;;;;4966516;28;20053;-65
2023/05/13 02:28:47;;;;;;;3.78;2.45;;;14.60;67.30;;;;;;4988178;28;20042;-65
2023/05/13 02:31:13;;;;;;;5.43;2.33;;;14.60;66.20;;;;;;4969405;28;20192;-65
2023/05/13 02:33:40;;;;;;;6.38;2.83;;;14.60;66.60;;;;;;4967933;28;20850;-65
2023/05/13 02:36:06;;;;;;;4.93;2.92;;;14.60;66.10;;;;;;4962627;28;20034;-65
2023/05/13 02:38:32;;;;;;;5.65;3.08;;;14.50;67.20;;;;;;4969568;28;20030;-65
2023/05/13 02:41:00;;;;;;;5.65;3.00;;;14.50;67.20;;;;;;4973044;28;20030;-65
2023/05/13 02:43:27;;;;;;;4.78;3.00;;;14.60;68.40;;;;;;4962887;28;20057;-65
2023/05/13 02:45:58;;;;;;;4.68;3.30;;;14.50;66.90;;;;;;4968957;28;20564;-65
2023/05/13 02:48:24;;;;;;;5.72;3.00;;;14.50;67.20;;;;;;4967672;28;20033;-64
2023/05/13 02:50:50;;;;;;;3.53;3.13;;;14.50;67.60;;;;;;4967845;28;20030;-64
2023/05/13 02:53:15;;;;;;;3.92;3.13;;;14.50;67.50;;;;;;4979998;28;20745;-64
2023/05/13 02:55:48;;;;;;;10.50;3.30;;;14.50;66.10;;;;;;4975498;28;20034;-64
2023/05/13 02:58:14;;;;;;;6.05;3.60;;;14.50;66.40;;;;;;4963222;28;20112;-64
2023/05/13 03:00:40;;;;;;;4.88;3.20;;;14.50;66.40;;;;;;4953296;28;20040;-64
2023/05/13 03:03:05;;;;;;;4.60;2.88;;;14.50;68.50;;;;;;4989682;28;20034;-64
2023/05/13 03:05:31;;;;;;;6.00;3.53;;;14.50;67.90;;;;;;4979887;28;20476;-64
2023/05/13 03:07:57;;;;;;;5.93;2.90;;;14.50;66.30;;;;;;4983286;28;20657;-62
2023/05/13 03:10:23;;;;;;;5.53;2.88;;;14.50;67.10;;;;;;4967980;28;20697;-64
2023/05/13 03:12:50;;;;;;;8.40;3.20;;;14.50;67.40;;;;;;4979852;28;20774;-64
2023/05/13 03:15:16;;;;;;;10.40;3.15;;;14.50;67.50;;;;;;4986474;28;20133;-64
2023/05/13 03:17:43;;;;;;;5.57;3.85;;;14.50;66.60;;;;;;4970000;28;20030;-64
2023/05/13 03:20:10;;;;;;;5.55;3.35;;;14.60;66.50;;;;;;4965199;28;20038;-62
2023/05/13 03:22:39;;;;;;;6.88;3.40;;;14.60;67.00;;;;;;4985720;28;20113;-64
2023/05/13 03:25:06;;;;;;;5.53;3.20;;;14.50;66.80;;;;;;4963808;28;20030;-64
2023/05/13 03:27:39;;;;;;;6.22;3.53;;;14.50;67.60;;;;;;4986802;28;20099;-65
2023/05/13 03:30:06;;;;;;;6.05;3.30;;;14.50;68.40;;;;;;4985918;28;20030;-65
2023/05/13 03:32:38;;;;;;;5.90;3.20;;;14.50;68.40;;;;;;4985377;28;20022;-65
2023/05/13 03:35:05;;;;;;;4.65;3.30;;;14.40;68.00;;;;;;4953507;28;20741;-65
2023/05/13 03:37:31;;;;;;;6.15;3.15;;;14.40;69.10;;;;;;4955259;28;20054;-65
2023/05/13 03:39:57;;;;;;;6.82;3.25;;;14.30;69.10;;;;;;4986100;28;20128;-64
2023/05/13 03:42:23;;;;;;;13.98;3.28;;;14.30;68.80;;;;;;4964308;28;20056;-64
2023/05/13 03:44:50;;;;;;;9.85;3.60;;;14.30;69.10;;;;;;4971156;28;20061;-65
2023/05/13 03:47:15;;;;;;;7.53;3.40;;;14.30;68.60;;;;;;4987916;28;20751;-64
2023/05/13 03:49:41;;;;;;;4.40;3.13;;;14.20;69.40;;;;;;4987348;28;20033;-64
2023/05/13 03:52:07;;;;;;;5.97;3.20;;;14.20;69.10;;;;;;4963641;28;20034;-64
2023/05/13 03:54:34;;;;;;;5.68;3.22;;;14.20;68.20;;;;;;4985846;28;20018;-64
2023/05/13 03:57:00;;;;;;;5.05;2.90;;;14.20;69.70;;;;;;4951484;28;20047;-64
2023/05/13 03:59:26;;;;;;;5.97;3.15;;;14.20;69.10;;;;;;4957360;28;20110;-64
2023/05/13 04:01:52;;;;;;;6.68;3.60;;;14.30;67.80;;;;;;4986208;28;20078;-64
2023/05/13 04:04:18;;;;;;;6.47;3.50;;;14.40;66.60;;;;;;4964340;28;20043;-64
2023/05/13 04:06:44;;;;;;;6.00;3.55;;;14.40;66.10;;;;;;4968655;28;20038;-64
2023/05/13 04:09:10;;;;;;;3.95;3.22;;;14.50;66.50;;;;;;4977346;28;20030;-64
2023/05/13 04:11:36;;;;;;;5.40;3.53;;;14.60;67.20;;;;;;4952603;28;20031;-64
2023/05/13 04:14:01;;;;;;;7.90;3.20;;;14.60;66.90;;;;;;4984053;28;20034;-64
2023/05/13 04:16:28;;;;;;;9.07;3.50;;;14.60;66.60;;;;;;4986794;28;20041;-64
2023/05/13 04:18:53;;;;;;;5.72;3.40;;;14.60;65.60;;;;;;4970686;28;20041;-64
2023/05/13 04:21:20;;;;;;;10.25;4.03;;;14.60;66.40;;;;;;4982137;28;20311;-64
2023/05/13 04:23:47;;;;;;;5.93;3.45;;;14.60;66.10;;;;;;4984622;28;20030;-65
2023/05/13 04:26:14;;;;;;;4.97;3.30;;;14.60;65.70;;;;;;4988203;28;20030;-65
2023/05/13 04:28:40;;;;;;;8.98;3.38;;;14.60;66.20;;;;;;4969437;28;20057;-65
2023/05/13 04:31:06;;;;;;;8.15;3.45;;;14.60;67.50;;;;;;4968744;28;20304;-65
2023/05/13 04:33:34;;;;;;;8.25;3.40;;;14.70;67.50;;;;;;4963768;28;20176;-65
2023/05/13 04:36:00;;;;;;;4.03;3.38;;;14.60;67.40;;;;;;4971544;28;20787;-65
2023/05/13 04:38:26;;;;;;;5.22;3.33;;;14.60;68.60;;;;;;4968226;28;20030;-65
2023/05/13 04:40:52;;;;;;;4.72;3.25;;;14.60;66.60;;;;;;4984935;28;20106;-65
2023/05/13 04:43:28;;;;;;;4.15;2.90;;;14.60;67.80;;;;;;4966324;28;20050;-65
2023/05/13 04:45:56;;;;;;;3.45;2.88;;;14.60;69.00;;;;;;4967609;28;20049;-65
2023/05/13 04:48:22;;;;;;;4.75;3.00;;;14.60;66.50;;;;;;4968123;28;20026;-63
2023/05/13 04:50:49;;;;;;;5.88;2.85;;;14.60;67.90;;;;;;4978256;28;20759;-65
2023/05/13 04:53:16;;;;;;;6.07;3.25;;;14.60;66.30;;;;;;4964101;28;20054;-65
2023/05/13 04:55:45;;;;;;;5.50;3.15;;;14.60;67.30;;;;;;4965663;28;20026;-65
2023/05/13 04:58:11;;;;;;;9.25;3.65;;;14.60;66.60;;;;;;4965378;28;20063;-65
2023/05/13 05:00:36;;;;;;;6.47;3.47;;;14.70;67.40;;;;;;4972607;28;20557;-65
2023/05/13 05:03:02;;;;;;;5.63;3.05;;;14.70;65.90;;;;;;4969300;28;20065;-65
2023/05/13 05:05:28;;;;;;;5.78;3.13;;;14.80;65.60;;;;;;4971666;28;20498;-65
2023/05/13 05:07:54;;;;;;;6.78;3.78;;;14.80;64.60;;;;;;4987320;28;20100;-65
2023/05/13 05:10:20;;;;;;;5.70;3.20;;;14.80;63.40;;;;;;4984524;28;20041;-64
2023/05/13 05:12:51;;;;;;;6.88;3.15;;;14.90;63.10;;;;;;4975712;28;20088;-65
2023/05/13 05:15:17;;;;;;;6.25;2.95;;;15.00;63.00;;;;;;4971167;28;20030;-65
2023/05/13 05:17:46;;;;;;;10.70;3.50;;;15.30;63.40;;;;;;4970745;28;20038;-65
2023/05/13 05:20:12;;;;;;;8.25;2.72;;;15.60;64.00;;;;;;4967665;28;20694;-65
2023/05/13 05:22:40;;;;;;;4.80;2.95;;;15.90;61.90;;;;;;4978666;28;20115;-65
2023/05/13 05:25:07;;;;;;;6.03;3.28;;;16.10;60.80;;;;;;4970266;28;20046;-65
2023/05/13 05:27:33;;;;;;;4.75;3.33;;;16.50;60.70;;;;;;4983544;28;20042;-65
2023/05/13 05:29:59;;;;;;;7.43;3.30;;;16.90;59.90;;;;;;4968043;28;20026;-65
2023/05/13 05:32:25;;;;;;;5.68;2.83;;;17.30;57.80;;;;;;4966211;28;20585;-65
2023/05/13 05:34:51;;;;;;;6.53;3.00;;;17.80;58.90;;;;;;4986639;28;20034;-65
2023/05/13 05:37:17;;;;;;;4.82;3.03;;;18.00;56.70;;;;;;4973469;28;20034;-65
2023/05/13 05:39:43;;;;;;;5.53;2.88;;;18.20;55.10;;;;;;4969125;28;20821;-65
2023/05/13 05:42:09;;;;;;;6.30;2.95;;;18.20;55.90;;;;;;4964632;28;20034;-65
2023/05/13 05:44:35;;;;;;;3.97;2.92;;;18.30;56.50;;;;;;4988422;28;20100;-65
2023/05/13 05:47:02;;;;;;;5.30;2.80;;;18.50;55.10;;;;;;4961760;28;20746;-65
2023/05/13 05:49:28;;;;;;;10.90;2.90;;;18.60;53.00;;;;;;4974615;28;20085;-64
2023/05/13 05:51:53;;;;;;;7.45;3.28;;;18.70;54.10;;;;;;4977884;28;20030;-63
2023/05/13 05:54:20;;;;;;;4.38;3.05;;;18.90;55.10;;;;;;4965323;28;20211;-63
2023/05/13 05:56:47;;;;;;;7.68;3.17;;;18.80;53.40;;;;;;4963938;28;20026;-63
2023/05/13 05:59:12;;;;;;;3.92;2.58;;;19.00;55.00;;;;;;4964334;28;20519;-63
2023/05/13 06:01:38;;;;;;;4.60;3.10;;;19.10;54.70;;;;;;4969873;28;20097;-62
2023/05/13 06:04:05;;;;;;;4.47;3.17;;;19.10;53.00;;;;;;4970211;28;20137;-63
2023/05/13 06:06:31;;;;;;;4.47;2.72;;;19.20;53.80;;;;;;4982392;28;20054;-63
2023/05/13 06:08:58;;;;;;;7.03;3.42;;;19.40;52.90;;;;;;4967003;28;20130;-63
2023/05/13 06:11:24;;;;;;;3.42;2.70;;;19.50;51.10;;;;;;4970995;28;20026;-63
2023/05/13 06:13:50;;;;;;;4.63;2.92;;;19.60;54.90;;;;;;4965766;28;20026;-63
2023/05/13 06:16:16;;;;;;;3.85;2.72;;;19.80;51.60;;;;;;4970911;28;20672;-63
2023/05/13 06:18:42;;;;;;;5.07;2.83;;;20.30;50.90;;;;;;4984255;28;20738;-63
2023/05/13 06:21:08;;;;;;;4.93;2.45;;;20.50;50.70;;;;;;4964935;28;20034;-63
2023/05/13 06:23:34;;;;;;;7.18;2.58;;;20.30;48.40;;;;;;4970389;28;20109;-63
2023/05/13 06:25:59;;;;;;;4.30;2.70;;;20.20;49.00;;;;;;4972157;28;20117;-63
2023/05/13 06:28:25;;;;;;;4.05;2.90;;;20.00;50.90;;;;;;4985839;28;20029;-63
2023/05/13 06:30:52;;;;;;;5.20;2.40;;;19.90;52.00;;;;;;4989987;28;20065;-64
2023/05/13 06:33:18;;;;;;;6.18;2.50;;;19.60;50.60;;;;;;4966726;28;20046;-64
2023/05/13 06:35:46;;;;;;;5.97;2.20;;;19.60;51.40;;;;;;4988884;28;20864;-64
2023/05/13 06:38:16;;;;;;;4.40;2.60;;;19.50;52.30;;;;;;4965987;28;20045;-64
2023/05/13 06:40:44;;;;;;;4.18;2.30;;;19.30;51.30;;;;;;4969420;28;20822;-64
2023/05/13 06:43:13;;;;;;;6.22;2.63;;;19.30;50.40;;;;;;4968738;28;20038;-63
2023/05/13 06:45:44;;;;;;;6.72;2.63;;;19.30;50.60;;;;;;4968392;28;20069;-64
2023/05/13 06:48:10;;;;;;;3.92;2.92;;;19.30;52.00;;;;;;4969487;28;20078;-64
2023/05/13 06:50:36;;;;;;;7.07;2.33;;;19.40;51.30;;;;;;4979253;28;20089;-64
2023/05/13 06:53:02;;;;;;;4.03;2.38;;;19.40;50.60;;;;;;4962908;28;20597;-64
2023/05/13 06:55:28;;;;;;;4.43;2.20;;;19.40;51.00;;;;;;4983953;28;20083;-64
2023/05/13 06:57:54;;;;;;;2.65;2.10;;;19.50;49.40;;;;;;4986271;28;20038;-63
2023/05/13 07:00:20;;;;;;;5.57;1.98;;;19.50;48.10;;;;;;4982241;28;20685;-63
2023/05/13 07:02:45;;;;;;;6.18;2.25;;;19.60;49.00;;;;;;4982004;28;20132;-63
2023/05/13 07:05:11;;;;;;;4.22;2.15;;;19.60;47.30;;;;;;4985792;28;20029;-63
2023/05/13 07:07:37;;;;;;;4.13;2.40;;;19.60;48.40;;;;;;4981467;28;20040;-63
2023/05/13 07:10:03;;;;;;;4.65;2.30;;;19.80;48.70;;;;;;4982285;28;20668;-63
2023/05/13 07:12:29;;;;;;;4.25;2.22;;;19.90;46.80;;;;;;4984973;28;20030;-63
2023/05/13 07:14:55;;;;;;;3.33;2.03;;;19.90;46.50;;;;;;4985732;28;20048;-60
2023/05/13 07:17:21;;;;;;;4.18;2.38;;;20.10;47.20;;;;;;4983493;28;20567;-63
2023/05/13 07:19:47;;;;;;;3.60;2.30;;;20.10;47.70;;;;;;4984463;28;20047;-63
2023/05/13 07:22:12;;;;;;;4.57;2.13;;;20.10;47.90;;;;;;4977357;28;20030;-62
2023/05/13 07:24:39;;;;;;;5.13;2.20;;;20.10;45.00;;;;;;4990341;28;20036;-61
2023/05/13 07:27:05;;;;;;;4.28;2.45;;;20.00;45.40;;;;;;4982614;28;20033;-62
2023/05/13 07:29:32;;;;;;;6.30;2.45;;;20.10;45.90;;;;;;4984615;28;20582;-61
2023/05/13 07:32:02;;;;;;;4.03;2.25;;;20.10;45.70;;;;;;4983092;28;20034;-62
2023/05/13 07:34:28;;;;;;;5.75;2.05;;;20.10;46.00;;;;;;4984620;28;20026;-62
2023/05/13 07:36:53;;;;;;;3.45;1.95;;;20.10;46.10;;;;;;4979044;28;20049;-62
2023/05/13 07:39:19;;;;;;;6.22;2.15;;;20.20;44.00;;;;;;4981276;28;20034;-62
2023/05/13 07:41:45;;;;;;;3.50;1.98;;;20.20;44.40;;;;;;4987352;28;20057;-62
2023/05/13 07:44:12;;;;;;;4.00;2.03;;;20.20;45.70;;;;;;4976761;28;20034;-61
2023/05/13 07:46:37;;;;;;;8.15;2.10;;;20.20;43.60;;;;;;4980119;28;20038;-61
2023/05/13 07:49:05;;;;;;;2.53;1.85;;;20.20;41.80;;;;;;4972710;28;20022;-61
2023/05/13 07:51:31;;;;;;;2.45;1.85;;;20.20;42.70;;;;;;4982005;28;20038;-61
2023/05/13 07:53:57;;;;;;;1.63;1.52;;;20.20;42.50;;;;;;4980094;28;20532;-61
2023/05/13 07:56:23;;;;;;;5.55;1.70;;;20.20;41.20;;;;;;4988422;28;20031;-62
2023/05/13 07:58:49;;;;;;;4.65;1.80;;;20.30;41.90;;;;;;4984535;28;20755;-63
2023/05/13 08:01:15;;;;;;;3.15;1.63;;;20.50;43.00;;;;;;4984575;28;20084;-63
2023/05/13 08:03:41;;;;;;;2.92;1.65;;;20.50;42.60;;;;;;4982471;28;20587;-62
2023/05/13 08:06:07;;;;;;;3.38;1.50;;;20.60;40.80;;;;;;4982539;28;20057;-62
2023/05/13 08:08:32;;;;;;;3.65;1.67;;;20.80;41.10;;;;;;4976983;28;20483;-62
2023/05/13 08:10:58;;;;;;;4.78;1.95;;;20.90;41.70;;;;;;4975829;28;20030;-62
2023/05/13 08:13:24;;;;;;;2.10;1.55;;;20.80;39.30;;;;;;4976483;28;20030;-62
2023/05/13 08:15:51;;;;;;;4.68;1.90;;;20.80;40.40;;;;;;4983030;28;20027;-62
2023/05/13 08:18:17;;;;;;;5.63;1.60;;;20.80;39.60;;;;;;4985450;28;20514;-62
2023/05/13 08:20:43;;;;;;;6.07;1.90;;;20.80;40.40;;;;;;4984100;28;20034;-62
2023/05/13 08:23:08;;;;;;;3.25;1.58;;;20.70;39.20;;;;;;4986826;28;20038;-62
2023/05/13 08:25:34;;;;;;;2.63;1.77;;;20.70;40.20;;;;;;4980943;28;20045;-62
2023/05/13 08:28:02;;;;;;;2.05;1.80;;;20.60;39.30;;;;;;4981067;28;20031;-62
2023/05/13 08:30:27;;;;;;;3.13;1.55;;;20.70;40.50;;;;;;4989331;28;20069;-62
2023/05/13 08:32:53;;;;;;;4.75;1.70;;;20.70;39.90;;;;;;4982846;28;20054;-62
2023/05/13 08:35:19;;;;;;;4.03;1.65;;;20.60;40.20;;;;;;4987361;28;20073;-62
2023/05/13 08:37:45;;;;;;;3.05;1.63;;;20.60;41.10;;;;;;4992675;28;20105;-62
2023/05/13 08:40:11;;;;;;;3.25;2.10;;;20.70;42.20;;;;;;4992274;28;20140;-62
2023/05/13 08:42:38;;;;;;;4.35;2.10;;;20.60;42.00;;;;;;4998649;28;20044;-62
2023/05/13 08:45:06;;;;;;;4.72;2.50;;;20.70;42.80;;;;;;4980282;28;20046;-62
2023/05/13 08:47:42;;;;;;;3.33;2.00;;;20.70;43.00;;;;;;4996631;28;20095;-62
2023/05/13 08:50:10;;;;;;;5.10;2.08;;;20.90;42.90;;;;;;4994071;28;20038;-62
2023/05/13 08:52:36;;;;;;;2.42;1.88;;;21.10;41.70;;;;;;4994691;28;20039;-62
2023/05/13 08:55:04;;;;;;;5.13;1.90;;;21.40;42.70;;;;;;4979132;28;20132;-61
2023/05/13 08:57:29;;;;;;;3.10;2.00;;;21.70;42.40;;;;;;4983341;28;20106;-62
2023/05/13 08:59:55;;;;;;;6.97;1.50;;;21.80;41.70;;;;;;4991801;28;20172;-62
2023/05/13 09:02:22;;;;;;;3.72;2.78;;;21.80;42.00;;;;;;4982485;28;20796;-62
2023/05/13 09:04:52;;;;;;;7.40;2.08;;;21.90;42.50;;;;;;4996101;28;20053;-62
2023/05/13 09:07:18;;;;;;;6.80;3.03;;;21.90;39.50;;;;;;4994274;28;20125;-62
2023/05/13 09:09:44;;;;;;;5.05;2.42;;;22.00;40.90;;;;;;4995086;28;20148;-62
2023/05/13 09:12:10;;;;;;;4.32;2.88;;;22.00;40.90;;;;;;4991651;28;20426;-62
2023/05/13 09:14:38;;;;;;;6.95;2.90;;;21.90;41.20;;;;;;4988353;28;20023;-62
2023/05/13 09:17:04;;;;;;;6.47;2.58;;;22.20;43.90;;;;;;4986808;28;20496;-62
2023/05/13 09:19:30;;;;;;;9.35;3.17;;;22.30;40.60;;;;;;4999020;28;20116;-62
2023/05/13 09:21:56;;;;;;;5.50;2.53;;;22.50;41.20;;;;;;4991527;28;20091;-62
2023/05/13 09:24:22;;;;;;;7.20;2.53;;;22.60;41.50;;;;;;4989743;28;20085;-62
2023/05/13 09:26:50;;;;;;;5.10;2.20;;;22.60;41.50;;;;;;4998721;28;20703;-62
2023/05/13 09:29:17;;;;;;;4.80;2.20;;;22.60;40.60;;;;;;4991344;28;20030;-62
2023/05/13 09:31:44;;;;;;;3.80;2.13;;;22.70;41.00;;;;;;4992536;28;20056;-62
2023/05/13 09:34:09;;;;;;;2.40;1.90;;;22.80;40.80;;;;;;4989863;28;20030;-62
2023/05/13 09:36:35;;;;;;;3.40;2.00;;;23.00;39.20;;;;;;4989014;28;20866;-62
2023/05/13 09:39:02;;;;;;;4.32;2.25;;;23.40;40.30;;;;;;4984689;28;20445;-63
2023/05/13 09:41:30;;;;;;;6.63;2.20;;;23.70;39.00;;;;;;4990120;28;20092;-63
2023/05/13 09:43:57;;;;;;;3.22;2.00;;;23.60;39.40;;;;;;4988505;28;20037;-62
2023/05/13 09:46:24;;;;;;;8.18;2.10;;;23.40;40.60;;;;;;4986745;28;20029;-63
2023/05/13 09:48:54;;;;;;;5.13;2.03;;;23.20;39.80;;;;;;4988798;28;20415;-62
2023/05/13 09:51:29;;;;;;;4.40;2.10;;;22.80;40.60;;;;;;4987617;28;20054;-63
2023/05/13 09:54:02;;;;;;;10.00;2.08;;;22.60;40.40;;;;;;4990257;28;20097;-62
2023/05/13 09:56:30;;;;;;;6.57;2.42;;;22.60;41.20;;;;;;4984865;28;20050;-62
2023/05/13 09:58:56;;;;;;;4.47;1.83;;;22.50;40.50;;;;;;4987327;28;20044;-63
2023/05/13 10:01:24;;;;;;;2.63;1.65;;;22.40;41.30;;;;;;4988379;28;20034;-62
2023/05/13 10:03:50;;;;;;;2.70;1.70;;;22.30;39.50;;;;;;4985896;28;21026;-63
2023/05/13 10:06:17;;;;;;;4.35;2.20;;;22.30;41.60;;;;;;4986195;28;20117;-63
2023/05/13 10:08:46;;;;;;;7.80;3.22;;;22.30;40.80;;;;;;4993451;28;20108;-63
2023/05/13 10:11:14;;;;;;;3.55;2.00;;;22.70;41.00;;;;;;4993028;28;20038;-63
2023/05/13 10:13:42;;;;;;;4.68;1.85;;;22.90;38.20;;;;;;4992991;28;20026;-63
2023/05/13 10:16:08;;;;;;;4.75;2.28;;;22.80;38.00;;;;;;4991313;28;20038;-63
2023/05/13 10:18:34;;;;;;;6.28;2.40;;;22.80;38.70;;;;;;4991342;28;20486;-63
2023/05/13 10:21:02;;;;;;;4.03;2.53;;;22.90;39.30;;;;;;4989846;28;20045;-63
2023/05/13 10:23:28;;;;;;;4.93;3.55;;;23.10;38.00;;;;;;4983356;28;20034;-63
2023/05/13 10:25:55;;;;;;;4.97;3.40;;;23.30;38.20;;;;;;4986414;28;20082;-63
2023/05/13 10:28:21;;;;;;;3.88;1.85;;;23.30;36.80;;;;;;4985692;28;20120;-63
2023/05/13 10:30:50;;;;;;;2.63;2.03;;;23.40;35.30;;;;;;4984311;28;20038;-62
2023/05/13 10:33:16;;;;;;;2.38;1.80;;;23.50;36.80;;;;;;4989967;28;20023;-63
2023/05/13 10:36:08;;;;;;;5.25;1.80;;;23.80;35.30;;;;;;4988126;28;20093;-63
2023/05/13 10:38:42;;;;;;;7.18;1.98;;;24.00;34.60;;;;;;4988154;28;20050;-63
2023/05/13 10:41:11;;;;;;;5.63;1.88;;;24.30;35.90;;;;;;4988946;28;20042;-63
2023/05/13 10:43:37;;;;;;;3.22;1.80;;;23.90;33.90;;;;;;4990061;28;20033;-62
2023/05/13 10:46:05;;;;;;;3.40;1.73;;;23.80;36.40;;;;;;4987294;28;20731;-63
2023/05/13 10:48:39;;;;;;;4.97;1.90;;;23.90;36.00;;;;;;4989959;28;20442;-63
2023/05/13 10:51:06;;;;;;;4.63;1.75;;;23.90;36.70;;;;;;4986763;28;20032;-63
2023/05/13 10:53:41;;;;;;;2.42;1.95;;;23.90;35.60;;;;;;4973943;28;20034;-63
2023/05/13 10:56:07;;;;;;;8.68;2.38;;;24.00;33.50;;;;;;4983378;28;20027;-63
2023/05/13 10:58:37;;;;;;;5.18;1.70;;;24.10;35.10;;;;;;4986997;28;20056;-63
2023/05/13 11:01:18;;;;;;;3.95;2.15;;;23.90;34.50;;;;;;4988178;28;20410;-63
2023/05/13 11:03:52;;;;;;;3.55;1.88;;;23.50;33.80;;;;;;4987782;28;20042;-64
2023/05/13 11:06:19;;;;;;;3.85;2.00;;;23.30;35.20;;;;;;4986859;28;20141;-64
2023/05/13 11:08:50;;;;;;;4.53;1.80;;;23.00;35.60;;;;;;4991355;28;20034;-63
2023/05/13 11:11:26;;;;;;;3.20;1.70;;;22.90;36.40;;;;;;4984964;28;20053;-64
2023/05/13 11:13:53;;;;;;;3.92;1.67;;;22.80;35.50;;;;;;4989309;28;20045;-63
2023/05/13 11:16:19;;;;;;;4.30;1.98;;;22.80;36.30;;;;;;4986337;28;20037;-63
2023/05/13 11:18:45;;;;;;;3.78;1.73;;;22.80;36.90;;;;;;4986950;28;20082;-62
2023/05/13 11:21:12;;;;;;;5.38;1.60;;;22.90;37.40;;;;;;4989989;28;20772;-62
2023/05/13 11:23:59;;;;;;;4.70;2.00;;;22.90;35.20;;;;;;4985540;28;20053;-63
2023/05/13 11:26:25;;;;;;;5.78;1.83;;;22.70;36.00;;;;;;4983965;28;20068;-63
2023/05/13 11:28:55;;;;;;;4.15;1.95;;;22.70;36.50;;;;;;4987223;28;20738;-62
2023/05/13 11:31:21;;;;;;;4.28;1.83;;;22.70;37.90;;;;;;4978591;28;20038;-63
2023/05/13 11:34:12;;;;;;;3.22;1.58;;;23.00;37.00;;;;;;4981791;28;20080;-62
2023/05/13 11:36:41;;;;;;;3.35;1.83;;;23.10;37.20;;;;;;4983162;28;20084;-63
2023/05/13 11:39:13;;;;;;;5.32;1.80;;;23.10;34.30;;;;;;4979432;28;20035;-63
2023/05/13 11:41:47;;;;;;;2.17;1.73;;;23.20;33.50;;;;;;4991394;28;20038;-63
2023/05/13 11:44:15;;;;;;;5.13;1.60;;;23.30;35.80;;;;;;4982882;28;20123;-63
2023/05/13 11:46:59;;;;;;;6.97;2.33;;;23.30;32.60;;;;;;4983575;28;20855;-63
2023/05/13 11:49:42;;;;;;;4.20;2.05;;;23.10;34.70;;;;;;4984824;28;20088;-63
2023/05/13 11:52:14;;;;;;;6.78;1.67;;;23.00;35.50;;;;;;4982565;28;20610;-63
2023/05/13 11:54:46;;;;;;;6.28;1.90;;;23.10;34.60;;;;;;4978557;28;20402;-63
2023/05/13 11:57:17;;;;;;;3.30;1.73;;;23.20;34.70;;;;;;4981461;28;20038;-63
2023/05/13 11:59:55;;;;;;;3.45;1.70;;;23.20;35.60;;;;;;4974315;28;20136;-64
2023/05/13 12:02:39;;;;;;;2.78;1.85;;;23.20;33.60;;;;;;4980546;28;20035;-63
2023/05/13 12:05:10;;;;;;;3.10;1.80;;;23.10;34.30;;;;;;4982002;28;20045;-63
2023/05/13 12:07:37;;;;;;;5.13;1.70;;;23.00;34.30;;;;;;4981379;28;20033;-63
2023/05/13 12:10:04;;;;;;;6.78;1.70;;;23.10;33.10;;;;;;4979160;28;20039;-63
2023/05/13 12:12:33;;;;;;;3.10;1.77;;;23.10;33.70;;;;;;4989001;28;20022;-63
2023/05/13 12:15:02;;;;;;;4.55;1.75;;;23.00;33.90;;;;;;4993584;28;20053;-62
2023/05/13 12:17:29;;;;;;;1.67;1.50;;;23.10;34.90;;;;;;4990714;28;20037;-63
2023/05/13 12:20:07;;;;;;;2.53;1.58;;;23.20;34.80;;;;;;4986042;28;20092;-63
2023/05/13 12:22:34;;;;;;;4.68;1.58;;;23.30;32.70;;;;;;4994369;28;20077;-63
2023/05/13 12:25:20;;;;;;;4.68;1.90;;;23.20;33.10;;;;;;4989849;28;20022;-63
2023/05/13 12:27:53;;;;;;;2.85;1.70;;;23.40;34.60;;;;;;4983163;28;20030;-63
2023/05/13 12:30:19;;;;;;;5.28;1.70;;;23.50;35.10;;;;;;4990439;28;20077;-64
2023/05/13 12:32:44;;;;;;;3.25;1.80;;;23.50;34.20;;;;;;4997066;28;20073;-62
2023/05/13 12:35:14;;;;;;;5.57;1.90;;;23.60;34.70;;;;;;4987405;28;20041;-63
2023/05/13 12:37:40;;;;;;;3.58;1.77;;;23.60;33.60;;;;;;4988208;28;20375;-63
2023/05/13 12:40:12;;;;;;;5.13;1.70;;;23.50;32.90;;;;;;4988200;28;20031;-65
2023/05/13 12:42:38;;;;;;;3.63;1.70;;;23.50;33.90;;;;;;4988888;28;20354;-65
2023/05/13 12:45:04;;;;;;;2.53;1.60;;;23.50;33.10;;;;;;4985734;28;20030;-65
2023/05/13 12:47:46;;;;;;;3.50;1.58;;;23.70;34.00;;;;;;4992131;28;20064;-64